createdAt,value
2023-02-15T00:01:59.245Z,101958.97
2023-02-15T00:04:47.507Z,101948.13
2023-02-15T00:07:16.400Z,101949.25
2023-02-15T00:09:43.644Z,101952.31
2023-02-15T00:12:11.071Z,101942.09
2023-02-15T00:14:38.205Z,101954.00
2023-02-15T00:17:05.487Z,101943.50
2023-02-15T00:19:32.289Z,101947.91
2023-02-15T00:21:58.920Z,101938.53
2023-02-15T00:24:25.820Z,101936.34
2023-02-15T00:26:52.585Z,101936.41
2023-02-15T00:29:20.838Z,101938.66
2023-02-15T00:31:47.938Z,101932.56
2023-02-15T00:34:20.278Z,101927.28
2023-02-15T00:36:47.284Z,101924.53
2023-02-15T00:39:16.356Z,101928.69
2023-02-15T00:41:44.773Z,101921.75
2023-02-15T00:44:12.382Z,101913.19
2023-02-15T00:46:39.453Z,101920.97
2023-02-15T00:49:09.439Z,101925.44
2023-02-15T00:51:36.795Z,101924.06
2023-02-15T00:54:03.463Z,101919.88
2023-02-15T00:56:30.353Z,101918.81
2023-02-15T00:58:56.987Z,101921.88
2023-02-15T01:01:24.695Z,101927.16
2023-02-15T01:03:52.101Z,101916.63
2023-02-15T01:06:19.269Z,101916.06
2023-02-15T01:08:47.727Z,101920.81
2023-02-15T01:11:23.135Z,101920.53
2023-02-15T01:13:56.236Z,101917.22
2023-02-15T01:16:24.880Z,101911.69
2023-02-15T01:18:51.933Z,101916.16
2023-02-15T01:21:21.814Z,101908.66
2023-02-15T01:23:49.470Z,101908.97
2023-02-15T01:26:17.165Z,101898.75
2023-02-15T01:28:45.112Z,101900.13
2023-02-15T01:31:15.487Z,101899.59
2023-02-15T01:33:42.758Z,101892.69
2023-02-15T01:36:11.008Z,101896.56
2023-02-15T01:38:38.929Z,101894.09
2023-02-15T01:41:21.496Z,101887.44
2023-02-15T01:43:54.059Z,101888.53
2023-02-15T01:46:25.808Z,101879.97
2023-02-15T01:48:57.659Z,101886.09
2023-02-15T01:51:28.826Z,101876.34
2023-02-15T01:54:08.259Z,101875.88
2023-02-15T01:56:38.350Z,101880.28
2023-02-15T01:59:10.025Z,101879.22
2023-02-15T02:01:38.501Z,101880.88
2023-02-15T02:04:25.786Z,101873.69
2023-02-15T02:06:53.374Z,101877.56
2023-02-15T02:09:20.214Z,101870.38
2023-02-15T02:11:48.863Z,101864.28
2023-02-15T02:14:16.798Z,101861.50
2023-02-15T02:17:18.601Z,101862.09
2023-02-15T02:20:22.756Z,101848.81
2023-02-15T02:23:16.369Z,101849.91
2023-02-15T02:26:01.722Z,101838.59
2023-02-15T02:28:43.518Z,101837.75
2023-02-15T02:31:37.371Z,101840.00
2023-02-15T02:34:29.502Z,101832.50
2023-02-15T02:37:24.855Z,101841.13
2023-02-15T02:40:22.830Z,101842.19
2023-02-15T02:43:16.486Z,101838.34
2023-02-15T02:46:07.264Z,101833.38
2023-02-15T02:48:34.492Z,101822.31
2023-02-15T02:51:01.270Z,101825.69
2023-02-15T02:53:31.377Z,101825.38
2023-02-15T02:56:07.535Z,101814.88
2023-02-15T02:58:46.309Z,101816.25
2023-02-15T03:01:36.549Z,101816.25
2023-02-15T03:04:10.002Z,101815.16
2023-02-15T03:06:48.187Z,101812.97
2023-02-15T03:09:25.391Z,101812.97
2023-02-15T03:11:52.390Z,101807.72
2023-02-15T03:14:21.080Z,101810.75
2023-02-15T03:16:51.825Z,101810.22
2023-02-15T03:19:24.605Z,101801.38
2023-02-15T03:22:14.925Z,101819.06
2023-02-15T03:24:46.228Z,101804.69
2023-02-15T03:27:19.045Z,101795.00
2023-02-15T03:29:51.629Z,101803.59
2023-02-15T03:32:19.767Z,101799.72
2023-02-15T03:34:47.383Z,101798.59
2023-02-15T03:37:30.851Z,101794.75
2023-02-15T03:40:30.961Z,101791.72
2023-02-15T03:43:41.724Z,101795.88
2023-02-15T03:46:41.055Z,101792.00
2023-02-15T03:49:10.663Z,101791.47
2023-02-15T03:52:00.556Z,101787.59
2023-02-15T03:54:43.591Z,101783.72
2023-02-15T03:57:32.203Z,101782.63
2023-02-15T04:00:35.368Z,101771.53
2023-02-15T04:03:30.607Z,101774.34
2023-02-15T04:05:57.344Z,101774.34
2023-02-15T04:08:46.813Z,101775.97
2023-02-15T04:11:13.567Z,101772.69
2023-02-15T04:13:41.595Z,101771.00
2023-02-15T04:16:08.861Z,101770.47
2023-02-15T04:19:00.189Z,101769.41
2023-02-15T04:21:49.544Z,101772.72
2023-02-15T04:24:35.729Z,101771.34
2023-02-15T04:27:04.154Z,101775.19
2023-02-15T04:29:32.178Z,101774.94
2023-02-15T04:32:02.821Z,101779.63
2023-02-15T04:34:29.583Z,101766.94
2023-02-15T04:36:56.419Z,101769.41
2023-02-15T04:39:23.018Z,101768.56
2023-02-15T04:41:49.869Z,101764.72
2023-02-15T04:44:16.827Z,101771.34
2023-02-15T04:46:43.750Z,101768.06
2023-02-15T04:49:10.619Z,101760.00
2023-02-15T04:51:37.529Z,101763.91
2023-02-15T04:54:04.438Z,101756.72
2023-02-15T04:56:32.209Z,101750.34
2023-02-15T04:58:58.956Z,101760.59
2023-02-15T05:01:25.644Z,101750.09
2023-02-15T05:03:52.499Z,101753.97
2023-02-15T05:06:19.403Z,101749.81
2023-02-15T05:08:46.096Z,101743.47
2023-02-15T05:11:12.719Z,101746.75
2023-02-15T05:13:39.371Z,101758.41
2023-02-15T05:16:06.309Z,101756.19
2023-02-15T05:18:33.482Z,101758.94
2023-02-15T05:21:00.381Z,101753.97
2023-02-15T05:23:27.524Z,101752.34
2023-02-15T05:26:12.757Z,101756.47
2023-02-15T05:28:39.613Z,101750.41
2023-02-15T05:31:12.163Z,101752.03
2023-02-15T05:33:40.017Z,101753.69
2023-02-15T05:36:07.897Z,101746.25
2023-02-15T05:38:34.764Z,101749.56
2023-02-15T05:41:01.459Z,101746.53
2023-02-15T05:43:29.104Z,101739.09
2023-02-15T05:45:56.208Z,101745.44
2023-02-15T05:48:25.122Z,101737.97
2023-02-15T05:51:02.950Z,101745.75
2023-02-15T05:53:31.196Z,101747.13
2023-02-15T05:56:00.961Z,101744.91
2023-02-15T05:58:28.751Z,101751.28
2023-02-15T06:01:15.260Z,101750.16
2023-02-15T06:03:42.634Z,101752.94
2023-02-15T06:06:09.597Z,101746.84
2023-02-15T06:08:37.759Z,101749.09
2023-02-15T06:11:05.276Z,101741.06
2023-02-15T06:13:33.215Z,101744.09
2023-02-15T06:16:00.163Z,101741.88
2023-02-15T06:18:27.398Z,101743.56
2023-02-15T06:20:54.084Z,101735.81
2023-02-15T06:23:20.725Z,101739.13
2023-02-15T06:25:47.446Z,101740.22
2023-02-15T06:28:14.777Z,101736.09
2023-02-15T06:30:41.687Z,101739.13
2023-02-15T06:33:08.615Z,101741.88
2023-02-15T06:35:35.389Z,101741.09
2023-02-15T06:38:02.333Z,101741.88
2023-02-15T06:40:29.220Z,101740.25
2023-02-15T06:42:56.049Z,101741.06
2023-02-15T06:45:22.612Z,101743.56
2023-02-15T06:47:49.382Z,101737.47
2023-02-15T06:50:16.053Z,101738.84
2023-02-15T06:52:42.769Z,101742.47
2023-02-15T06:55:09.422Z,101738.06
2023-02-15T06:57:36.033Z,101739.41
2023-02-15T07:00:03.234Z,101737.47
2023-02-15T07:02:29.979Z,101738.63
2023-02-15T07:04:56.782Z,101737.50
2023-02-15T07:07:23.863Z,101728.09
2023-02-15T07:09:50.552Z,101733.06
2023-02-15T07:12:35.978Z,101732.53
2023-02-15T07:15:07.029Z,101734.16
2023-02-15T07:17:36.322Z,101734.72
2023-02-15T07:20:10.663Z,101738.81
2023-02-15T07:22:38.244Z,101730.19
2023-02-15T07:25:07.321Z,101728.44
2023-02-15T07:27:34.048Z,101728.91
2023-02-15T07:30:01.469Z,101736.16
2023-02-15T07:32:32.836Z,101730.09
2023-02-15T07:35:00.252Z,101730.34
2023-02-15T07:37:28.028Z,101740.03
2023-02-15T07:39:54.966Z,101733.09
2023-02-15T07:42:22.926Z,101722.56
2023-02-15T07:44:49.802Z,101734.91
2023-02-15T07:47:16.523Z,101727.72
2023-02-15T07:49:43.329Z,101726.56
2023-02-15T07:52:10.291Z,101723.19
2023-02-15T07:54:37.049Z,101726.75
2023-02-15T07:57:18.755Z,101727.28
2023-02-15T07:59:45.758Z,101718.13
2023-02-15T08:02:12.639Z,101729.47
2023-02-15T08:04:40.324Z,101719.75
2023-02-15T08:07:07.838Z,101718.06
2023-02-15T08:09:34.500Z,101718.06
2023-02-15T08:12:01.134Z,101721.06
2023-02-15T08:14:28.388Z,101715.78
2023-02-15T08:16:57.283Z,101715.72
2023-02-15T08:19:26.181Z,101716.28
2023-02-15T08:21:57.813Z,101709.03
2023-02-15T08:24:27.343Z,101717.91
2023-02-15T08:26:54.572Z,101719.53
2023-02-15T08:29:29.878Z,101717.28
2023-02-15T08:32:05.462Z,101717.28
2023-02-15T08:34:38.662Z,101706.22
2023-02-15T08:37:07.042Z,101710.38
2023-02-15T08:39:33.965Z,101708.41
2023-02-15T08:42:00.634Z,101703.88
2023-02-15T08:44:27.387Z,101702.84
2023-02-15T08:46:54.297Z,101706.13
2023-02-15T08:49:22.734Z,101697.75
2023-02-15T08:51:50.375Z,101688.91
2023-02-15T08:54:19.722Z,101697.75
2023-02-15T08:56:46.945Z,101693.31
2023-02-15T08:59:17.216Z,101702.66
2023-02-15T09:01:44.349Z,101699.91
2023-02-15T09:04:11.043Z,101691.56
2023-02-15T09:06:39.526Z,101694.34
2023-02-15T09:09:06.947Z,101689.31
2023-02-15T09:11:40.124Z,101688.72
2023-02-15T09:14:10.514Z,101688.72
2023-02-15T09:16:39.180Z,101678.66
2023-02-15T09:19:06.836Z,101685.88
2023-02-15T09:21:36.638Z,101683.09
2023-02-15T09:24:06.037Z,101680.34
2023-02-15T09:26:33.844Z,101665.88
2023-02-15T09:29:02.472Z,101678.09
2023-02-15T09:31:38.122Z,101674.19
2023-02-15T09:34:05.034Z,101683.59
2023-02-15T09:36:34.793Z,101690.78
2023-02-15T09:39:15.448Z,101686.59
2023-02-15T09:42:05.479Z,101690.16
2023-02-15T09:44:56.410Z,101689.09
2023-02-15T09:47:47.599Z,101696.88
2023-02-15T09:50:23.292Z,101699.66
2023-02-15T09:53:23.917Z,101696.28
2023-02-15T09:56:15.266Z,101696.28
2023-02-15T09:59:06.137Z,101704.31
2023-02-15T10:01:54.397Z,101704.03
2023-02-15T10:04:35.964Z,101697.94
2023-02-15T10:07:24.185Z,101691.78
2023-02-15T10:09:59.901Z,101692.88
2023-02-15T10:12:57.032Z,101700.63
2023-02-15T10:15:29.434Z,101703.66
2023-02-15T10:18:02.380Z,101703.47
2023-02-15T10:20:54.024Z,101704.63
2023-02-15T10:23:57.757Z,101709.59
2023-02-15T10:26:42.544Z,101705.28
2023-02-15T10:29:28.751Z,101700.69
2023-02-15T10:32:17.010Z,101705.28
2023-02-15T10:35:11.354Z,101706.94
2023-02-15T10:38:00.410Z,101700.34
2023-02-15T10:40:34.491Z,101698.00
2023-02-15T10:43:15.292Z,101701.34
2023-02-15T10:46:03.717Z,101698.56
2023-02-15T10:48:57.279Z,101695.72
2023-02-15T10:51:44.248Z,101702.09
2023-02-15T10:54:16.321Z,101685.88
2023-02-15T10:57:01.757Z,101696.78
2023-02-15T10:59:44.137Z,101682.56
2023-02-15T11:02:17.469Z,101683.66
2023-02-15T11:05:00.480Z,101683.84
2023-02-15T11:07:36.000Z,101686.13
2023-02-15T11:10:21.344Z,101682.22
2023-02-15T11:12:49.924Z,101690.47
2023-02-15T11:15:20.953Z,101685.53
2023-02-15T11:17:53.300Z,101682.38
2023-02-15T11:20:28.677Z,101672.03
2023-02-15T11:22:55.693Z,101679.22
2023-02-15T11:25:29.256Z,101674.88
2023-02-15T11:27:56.760Z,101667.66
2023-02-15T11:30:35.869Z,101667.91
2023-02-15T11:33:07.615Z,101675.84
2023-02-15T11:35:48.264Z,101663.00
2023-02-15T11:38:22.609Z,101648.59
2023-02-15T11:40:50.360Z,101649.34
2023-02-15T11:43:19.579Z,101637.09
2023-02-15T11:45:47.387Z,101645.97
2023-02-15T11:48:16.017Z,101644.53
2023-02-15T11:50:45.177Z,101644.75
2023-02-15T11:53:17.707Z,101624.47
2023-02-15T11:55:46.452Z,101631.06
2023-02-15T11:58:38.803Z,101627.81
2023-02-15T12:01:29.465Z,101621.56
2023-02-15T12:04:00.800Z,101614.28
2023-02-15T12:06:35.210Z,101621.91
2023-02-15T12:09:18.713Z,101616.13
2023-02-15T12:11:45.626Z,101604.28
2023-02-15T12:14:16.707Z,101608.09
2023-02-15T12:16:49.812Z,101597.47
2023-02-15T12:19:38.377Z,101598.00
2023-02-15T12:22:08.652Z,101598.31
2023-02-15T12:24:44.854Z,101605.81
2023-02-15T12:27:18.574Z,101594.69
2023-02-15T12:30:16.698Z,101602.94
2023-02-15T12:32:52.382Z,101595.09
2023-02-15T12:35:31.095Z,101597.38
2023-02-15T12:38:04.256Z,101595.72
2023-02-15T12:40:32.378Z,101588.75
2023-02-15T12:42:59.382Z,101591.19
2023-02-15T12:45:34.757Z,101590.09
2023-02-15T12:48:20.510Z,101592.53
2023-02-15T12:50:54.790Z,101585.84
2023-02-15T12:53:34.289Z,101581.13
2023-02-15T12:56:02.384Z,101583.91
2023-02-15T12:58:33.957Z,101572.16
2023-02-15T13:01:09.598Z,101566.69
2023-02-15T13:03:38.838Z,101567.53
2023-02-15T13:06:09.505Z,101562.59
2023-02-15T13:09:21.785Z,101557.84
2023-02-15T13:12:24.435Z,101555.25
2023-02-15T13:14:53.602Z,101556.41
2023-02-15T13:17:30.573Z,101545.44
2023-02-15T13:20:02.842Z,101545.44
2023-02-15T13:22:44.032Z,101558.66
2023-02-15T13:25:18.763Z,101549.16
2023-02-15T13:27:47.447Z,101547.31
2023-02-15T13:30:24.591Z,101547.63
2023-02-15T13:32:57.285Z,101546.50
2023-02-15T13:35:44.814Z,101552.56
2023-02-15T13:38:30.594Z,101544.84
2023-02-15T13:41:07.673Z,101545.97
2023-02-15T13:43:44.996Z,101544.84
2023-02-15T13:46:26.617Z,101541.03
2023-02-15T13:49:02.457Z,101536.59
2023-02-15T13:51:48.010Z,101542.16
2023-02-15T13:54:34.079Z,101535.97
2023-02-15T13:57:15.215Z,101538.25
2023-02-15T14:00:19.557Z,101538.75
2023-02-15T14:03:20.201Z,101537.63
2023-02-15T14:06:06.136Z,101530.41
2023-02-15T14:08:48.014Z,101532.56
2023-02-15T14:12:00.793Z,101532.28
2023-02-15T14:14:45.555Z,101535.34
2023-02-15T14:52:17.469Z,101518.03
2023-02-15T14:54:46.732Z,101514.13
2023-02-15T14:57:13.299Z,101517.53
2023-02-15T14:59:59.433Z,101517.41
2023-02-15T15:02:43.609Z,101510.81
2023-02-15T15:05:33.195Z,101518.03
2023-02-15T15:08:02.400Z,101520.81
2023-02-15T15:10:47.603Z,101522.47
2023-02-15T15:13:32.093Z,101528.56
2023-02-15T15:16:29.998Z,101531.63
2023-02-15T15:18:57.977Z,101528.19
2023-02-15T15:21:56.804Z,101523.56
2023-02-15T15:24:38.942Z,101529.94
2023-02-15T15:27:44.764Z,101530.38
2023-02-15T15:30:14.133Z,101529.56
2023-02-15T15:32:56.145Z,101532.63
2023-02-15T15:35:29.324Z,101533.16
2023-02-15T15:38:15.046Z,101534.16
2023-02-15T15:40:43.058Z,101527.78
2023-02-15T15:43:47.021Z,101535.19
2023-02-15T15:46:35.796Z,101535.19
2023-02-15T15:49:07.588Z,101540.97
2023-02-15T15:51:34.871Z,101535.06
2023-02-15T15:54:04.878Z,101533.41
2023-02-15T15:56:37.108Z,101532.28
2023-02-15T15:59:15.415Z,101531.34
2023-02-15T16:01:44.528Z,101534.44
2023-02-15T16:04:14.172Z,101533.13
2023-02-15T16:06:42.599Z,101533.31
2023-02-15T16:09:13.097Z,101532.00
2023-02-15T16:11:41.153Z,101537.78
2023-02-15T16:14:19.717Z,101535.50
2023-02-15T16:16:52.226Z,101529.13
2023-02-15T16:19:22.667Z,101543.25
2023-02-15T16:21:49.966Z,101529.94
2023-02-15T16:24:23.255Z,101529.41
2023-02-15T16:27:05.114Z,101524.13
2023-02-15T16:29:34.808Z,101533.72
2023-02-15T16:32:22.051Z,101521.88
2023-02-15T16:35:00.347Z,101526.84
2023-02-15T16:37:37.655Z,101532.41
2023-02-15T16:40:23.631Z,101532.59
2023-02-15T16:43:02.729Z,101531.97
2023-02-15T16:45:32.833Z,101529.19
2023-02-15T16:48:06.425Z,101528.22
2023-02-15T16:50:37.283Z,101534.00
2023-02-15T16:53:07.713Z,101533.56
2023-02-15T16:56:01.293Z,101545.53
2023-02-15T16:58:50.831Z,101533.75
2023-02-15T17:01:22.178Z,101533.75
2023-02-15T17:03:50.927Z,101537.88
2023-02-15T17:06:27.464Z,101535.59
2023-02-15T17:09:05.147Z,101541.38
2023-02-15T17:11:40.723Z,101543.63
2023-02-15T17:14:10.650Z,101552.50
2023-02-15T17:16:43.965Z,101556.44
2023-02-15T17:19:20.134Z,101556.44
2023-02-15T17:22:10.147Z,101558.50
2023-02-15T17:24:39.186Z,101566.25
2023-02-15T17:27:16.821Z,101567.56
2023-02-15T17:29:53.370Z,101561.66
2023-02-15T17:32:23.326Z,101567.78
2023-02-15T17:35:09.471Z,101570.75
2023-02-15T17:37:38.978Z,101578.44
2023-02-15T17:40:23.841Z,101577.47
2023-02-15T17:42:50.526Z,101576.66
2023-02-15T17:45:18.046Z,101576.63
2023-02-15T17:47:47.987Z,101572.53
2023-02-15T17:50:33.527Z,101579.88
2023-02-15T17:53:02.214Z,101577.09
2023-02-15T17:55:42.828Z,101571.59
2023-02-15T17:58:11.197Z,101574.38
2023-02-15T18:01:05.840Z,101575.34
2023-02-15T18:04:07.058Z,101574.00
2023-02-15T18:06:54.427Z,101579.69
2023-02-15T18:09:41.478Z,101573.06
2023-02-15T18:12:22.962Z,101581.72
2023-02-15T18:14:50.632Z,101578.44
2023-02-15T18:17:18.397Z,101582.66
2023-02-15T18:19:46.647Z,101584.94
2023-02-15T18:22:16.676Z,101578.84
2023-02-15T18:24:44.003Z,101588.34
2023-02-15T18:27:12.962Z,101579.28
2023-02-15T18:29:39.646Z,101582.34
2023-02-15T18:32:16.526Z,101575.97
2023-02-15T18:34:44.832Z,101575.16
2023-02-15T18:37:16.769Z,101573.81
2023-02-15T18:39:46.836Z,101568.88
2023-02-15T18:42:19.628Z,101572.66
2023-02-15T18:44:46.371Z,101566.28
2023-02-15T18:47:13.106Z,101561.88
2023-02-15T18:49:39.752Z,101568.88
2023-02-15T18:52:06.616Z,101567.50
2023-02-15T18:54:33.360Z,101571.22
2023-02-15T18:57:01.728Z,101570.91
2023-02-15T18:59:30.430Z,101580.09
2023-02-15T19:01:57.977Z,101574.34
2023-02-15T19:04:25.871Z,101575.47
2023-02-15T19:06:54.409Z,101579.91
2023-02-15T19:09:24.149Z,101586.06
2023-02-15T19:11:54.476Z,101585.84
2023-02-15T19:14:39.589Z,101577.81
2023-02-15T19:17:21.861Z,101579.97
2023-02-15T19:19:50.068Z,101581.13
2023-02-15T19:22:19.141Z,101583.91
2023-02-15T19:24:47.908Z,101585.63
2023-02-15T19:27:28.785Z,101591.00
2023-02-15T19:29:58.524Z,101582.66
2023-02-15T19:32:25.972Z,101583.47
2023-02-15T19:34:52.878Z,101577.41
2023-02-15T19:37:24.256Z,101580.28
2023-02-15T19:39:50.926Z,101584.81
2023-02-15T19:42:22.434Z,101578.81
2023-02-15T19:44:50.276Z,101586.41
2023-02-15T19:47:17.350Z,101578.66
2023-02-15T19:49:44.557Z,101571.56
2023-02-15T19:52:25.731Z,101573.28
2023-02-15T19:54:54.968Z,101574.41
2023-02-15T19:57:21.893Z,101579.78
2023-02-15T19:59:48.615Z,101574.00
2023-02-15T20:02:18.090Z,101575.72
2023-02-15T20:04:45.012Z,101576.03
2023-02-15T20:07:24.353Z,101559.97
2023-02-15T20:09:51.183Z,101573.31
2023-02-15T20:12:23.386Z,101574.75
2023-02-15T20:14:50.756Z,101578.47
2023-02-15T20:17:17.553Z,101580.72
2023-02-15T20:19:46.156Z,101592.44
2023-02-15T20:22:27.567Z,101598.28
2023-02-15T20:24:56.338Z,101611.34
2023-02-15T20:27:23.282Z,101613.59
2023-02-15T20:29:50.742Z,101607.75
2023-02-15T20:32:17.594Z,101607.22
2023-02-15T20:34:44.388Z,101610.41
2023-02-15T20:37:23.648Z,101615.41
2023-02-15T20:39:51.194Z,101614.38
2023-02-15T20:42:18.863Z,101612.72
2023-02-15T20:44:45.493Z,101606.94
2023-02-15T20:47:12.294Z,101613.91
2023-02-15T20:49:39.256Z,101616.16
2023-02-15T20:52:19.325Z,101600.94
2023-02-15T20:54:46.119Z,101596.81
2023-02-15T20:57:13.152Z,101593.50
2023-02-15T20:59:40.659Z,101594.94
2023-02-15T21:02:25.877Z,101603.03
2023-02-15T21:04:53.147Z,101608.06
2023-02-15T21:07:21.719Z,101606.38
2023-02-15T21:09:49.098Z,101600.63
2023-02-15T21:12:18.396Z,101605.97
2023-02-15T21:14:45.956Z,101614.56
2023-02-15T21:17:17.293Z,101595.44
2023-02-15T21:19:44.387Z,101606.03
2023-02-15T21:22:13.576Z,101603.84
2023-02-15T21:24:47.827Z,101603.63
2023-02-15T21:27:15.352Z,101608.56
2023-02-15T21:29:42.199Z,101605.03
2023-02-15T21:32:10.558Z,101603.91
2023-02-15T21:34:37.324Z,101603.97
2023-02-15T21:37:05.249Z,101600.09
2023-02-15T21:39:36.156Z,101603.13
2023-02-15T21:42:24.891Z,101606.50
2023-02-15T21:45:10.674Z,101600.72
2023-02-15T21:47:52.455Z,101600.25
2023-02-15T21:50:40.905Z,101605.28
2023-02-15T21:53:13.515Z,101610.56
2023-02-15T21:55:40.549Z,101598.66
2023-02-15T21:58:07.451Z,101601.72
2023-02-15T22:00:34.238Z,101599.78
2023-02-15T22:03:02.044Z,101602.59
2023-02-15T22:05:31.755Z,101593.25
2023-02-15T22:07:58.964Z,101597.13
2023-02-15T22:10:31.766Z,101603.50
2023-02-15T22:13:03.217Z,101593.84
2023-02-15T22:15:36.405Z,101602.97
2023-02-15T22:18:04.152Z,101597.72
2023-02-15T22:20:31.081Z,101594.41
2023-02-15T22:22:57.733Z,101596.38
2023-02-15T22:25:26.496Z,101600.25
2023-02-15T22:27:54.809Z,101605.00
2023-02-15T22:30:26.790Z,101593.94
2023-02-15T22:32:54.809Z,101593.72
2023-02-15T22:35:26.261Z,101596.78
2023-02-15T22:37:52.952Z,101595.09
2023-02-15T22:40:20.499Z,101594.06
2023-02-15T22:42:50.624Z,101598.50
2023-02-15T22:45:20.985Z,101605.16
2023-02-15T22:47:49.361Z,101603.50
2023-02-15T22:50:25.949Z,101595.75
2023-02-15T22:52:53.150Z,101602.44
2023-02-15T22:55:23.423Z,101606.84
2023-02-15T22:57:53.264Z,101595.50
2023-02-15T23:00:26.334Z,101591.13
2023-02-15T23:02:54.792Z,101599.72
2023-02-15T23:05:27.820Z,101598.91
2023-02-15T23:07:55.240Z,101599.50
2023-02-15T23:10:24.202Z,101597.81
2023-02-15T23:13:15.844Z,101595.94
2023-02-15T23:15:44.513Z,101595.94
2023-02-15T23:18:26.190Z,101590.16
2023-02-15T23:20:58.775Z,101586.03
2023-02-15T23:23:35.220Z,101590.44
2023-02-15T23:26:04.620Z,101589.91
2023-02-15T23:28:37.600Z,101591.00
2023-02-15T23:31:18.102Z,101586.63
2023-02-15T23:33:45.665Z,101579.41
2023-02-15T23:36:36.617Z,101587.19
2023-02-15T23:39:43.439Z,101578.31
2023-02-15T23:42:20.427Z,101584.47
2023-02-15T23:44:48.883Z,101590.03
2023-02-15T23:47:49.124Z,101601.09
2023-02-15T23:50:20.832Z,101603.31
2023-02-15T23:52:47.930Z,101592.81
2023-02-15T23:55:15.328Z,101597.84
2023-02-15T23:57:44.214Z,101595.66
